Dauntless Aviation
Airports Europe Germany
EDSW

Altdorf-Wallburg

Altdorf-Wallburg, GERMANY

Airport Info
Suggest Updated Information for this Airport

Location

Latitude / Longitude: 48°16'11"N / 7°50'31"E
  48°16.188'N / 7°50.532'E
  48.2698 / 7.8422
Satellite photo at:
Airport distance calculator
From:
Weather Reports

METAR

EDTL
5.8nm NW
EDTL 301150Z 20011KT 170V240 9999 SCT032 23/15 Q1015
LFST
18.2nm NW
LFST 301200Z AUTO 22005KT 190V250 9999 FEW038 SCT047 BKN062 24/16 Q1015 TEMPO FEW040CB
EDSB
32.3nm N
EDSB 301150Z 31005KT 250V360 9999 SCT028 BKN040 22/16 Q1015

TAF

EDTL
5.8nm NW
TAF EDTL 301100Z 3012/3021 21009KT 9999 FEW030
LFST
18.2nm NW
TAF LFST 301100Z 3012/0112 20007KT 9999 SCT035 BKN050 PROB40 TEMPO 3012/3020 FEW040CB
EDSB
32.3nm N
TAF EDSB 301100Z 3012/0112 23010KT 9999 FEW035 BECMG 3016/3018 20003KT
Safelog

 

Dauntless Aviation

© 2007-2016 Dauntless Aviation, all rights reserved
Information provided via PilotNav comes from a variety of official and unofficial data sources. As errors are possible, do not use PilotNav for primary flight planning purposes. Verify any information that you receive via PilotNav with current and canonical charts and other official documents. The material in this database is subject to database copyrights held by Dauntless Aviation and may not be copied without the express permission of Dauntless Aviation - licenses for use of part of all of this data are available for purchase; enquire via the Dauntless Aviation helpdesk. A number of mechanisms and markers exist in the database to protect against and identify infringement / copyright. Automated queries against this website are stictly prohibited, and all activity is logged and analyzed.